Time;durP1;ratioP1;P1;durP2;ratioP2;P2;SDS_P1;SDS_P2;PMS_P1;PMS_P2;Temp;Humidity;BMP_temperature;BMP_pressure;BME280_temperature;BME280_humidity;BME280_pressure;Samples;Min_cycle;Max_cycle;Signal;HPM_P1;HPM_P2
2023/03/21 10:04:33;;;;;;;;;;;;;;;;;;5002889;27;13301;-74
2023/03/21 10:06:58;;;;;;;;;;;;;;;;;;5036156;28;7551;-74
2023/03/21 10:09:24;;;;;;;;;;;;;;;;;;5059806;28;7541;-74
2023/03/21 10:11:49;;;;;;;;;;;;;;;;;;4748571;28;12228;-75
2023/03/21 10:14:14;;;;;;;;;;;;;;;;;;4937535;28;12479;-73
2023/03/21 10:18:39;;;;;;;;;29.25;27.00;;;;;;;;5023538;27;13331;-75
2023/03/21 10:21:06;;;;;;;;;28.00;25.80;;;;;;;;5027273;28;13679;-76
2023/03/21 10:23:31;;;;;;;;;23.40;23.20;;;;;;;;5003455;28;13512;-76
2023/03/21 10:25:58;;;;;;;;;26.67;26.00;;;;;;;;4957723;28;13568;-76
2023/03/21 10:28:36;;;;;;;;;29.50;28.50;;;;;;;;5029506;28;13618;-77
2023/03/21 10:31:03;;;;;;;;;24.20;24.20;;;;;;;;5020565;28;13859;-69
2023/03/21 10:33:36;;;;;;;;;25.25;23.00;;;;;;;;5020173;28;13688;-69
2023/03/21 10:36:04;;;;;;;;;26.50;25.75;;;;;;;;5015843;28;13786;-71
2023/03/21 10:38:30;;;;;;;;;25.80;25.80;;;;;;;;5012990;28;13655;-71
2023/03/21 10:40:55;;;;;;;;;27.00;24.00;;;;;;;;5012768;28;13757;-72
2023/03/21 10:43:26;;;;;;;;;24.75;24.75;;;;;;;;5019816;28;13617;-71
2023/03/21 10:45:52;;;;;;;;;28.25;26.00;;;;;;;;5004046;28;13768;-71
2023/03/21 10:48:18;;;;;;;;;23.00;21.50;;;;;;;;5010946;28;13650;-71
2023/03/21 10:50:45;;;;;;;;;26.50;25.50;;;;;;;;5014388;28;13731;-72
2023/03/21 10:53:19;;;;;;;;;27.40;24.40;;;;;;;;5015488;28;13593;-73
2023/03/21 10:55:47;;;;;;;;;29.25;26.75;;;;;;;;5013192;28;13643;-73
2023/03/21 10:58:17;;;;;;;;;24.00;23.00;;;;;;;;5018042;28;13731;-73
2023/03/21 11:00:43;;;;;;;;;23.00;23.00;;;;;;;;4999130;28;13713;-73
2023/03/21 11:03:22;;;;;;;;;28.00;26.00;;;;;;;;5023310;28;14462;-73
2023/03/21 11:05:51;;;;;;;;;20.50;19.00;;;;;;;;5021384;28;13596;-74
2023/03/21 11:08:17;;;;;;;;;45.00;36.80;;;;;;;;5016102;28;13567;-75
2023/03/21 11:11:01;;;;;;;;;29.00;29.00;;;;;;;;5020180;28;13639;-72
2023/03/21 11:13:39;;;;;;;;;21.00;20.40;;;;;;;;5019772;28;13596;-71
2023/03/21 11:16:17;;;;;;;;;22.00;21.00;;;;;;;;5036778;28;13728;-73
2023/03/21 11:18:49;;;;;;;;;20.20;20.20;;;;;;;;5035859;28;13752;-75
2023/03/21 11:21:18;;;;;;;;;15.80;14.40;;;;;;;;5020736;28;13574;-73
2023/03/21 11:23:46;;;;;;;;;20.00;18.75;;;;;;;;5030061;28;13763;-74
2023/03/21 11:26:42;;;;;;;;;19.60;17.00;;;;;;;;5016860;28;13624;-73
2023/03/21 11:32:29;;;;;;;;;24.33;22.00;;;;;;;;4908608;29;13784;-75
2023/03/21 11:34:59;;;;;;;;;20.25;19.75;;;;;;;;4909373;29;14468;-71
2023/03/21 11:37:27;;;;;;;;;22.80;21.00;;;;;;;;4909105;29;13866;-78
2023/03/21 11:40:11;;;;;;;;;22.00;22.00;;;;;;;;4908786;29;13736;-77
2023/03/21 11:42:41;;;;;;;;;22.00;22.00;;;;;;;;4908806;29;13748;-75
2023/03/21 11:45:34;;;;;;;;;21.00;21.00;;;;;;;;4910514;29;13908;-77
2023/03/21 11:48:00;;;;;;;;;21.00;19.00;;;;;;;;4852273;29;13800;-75
2023/03/21 11:50:26;;;;;;;;;17.50;17.50;;;;;;;;4851293;29;13618;-76
2023/03/21 11:53:03;;;;;;;;;18.00;17.75;;;;;;;;4849066;29;14430;-75
2023/03/21 11:55:35;;;;;;;;;22.75;21.25;;;;;;;;4849860;29;13943;-73
2023/03/21 11:58:00;;;;;;;;;22.00;20.75;;;;;;;;4854354;29;13703;-78
2023/03/21 12:00:32;;;;;;;;;19.50;18.00;;;;;;;;4889256;29;13728;-70
2023/03/21 12:03:09;;;;;;;;;18.00;16.75;;;;;;;;4850123;29;13773;-76
2023/03/21 12:06:05;;;;;;;;;15.20;14.60;;;;;;;;4858231;29;14008;-75
2023/03/21 12:08:40;;;;;;;;;19.40;16.00;;;;;;;;4918445;28;13669;-78
2023/03/21 12:11:15;;;;;;;;;19.00;18.20;;;;;;;;4947153;28;13628;-78
2023/03/21 12:13:45;;;;;;;;;22.80;22.80;;;;;;;;4947808;28;14446;-75
2023/03/21 12:16:25;;;;;;;;;20.40;20.40;;;;;;;;4946954;28;13657;-75
2023/03/21 12:19:12;;;;;;;;;18.75;18.25;;;;;;;;4932100;28;13823;-76
2023/03/21 12:21:56;;;;;;;;;16.40;15.40;;;;;;;;4946061;28;14680;-75
2023/03/21 12:24:23;;;;;;;;;18.00;16.25;;;;;;;;4961033;28;13621;-74
2023/03/21 12:26:52;;;;;;;;;28.75;26.75;;;;;;;;4985968;28;14845;-74
2023/03/21 12:29:40;;;;;;;;;26.25;25.25;;;;;;;;4986736;28;13753;-75
2023/03/21 12:32:25;;;;;;;;;29.25;26.75;;;;;;;;4987373;28;13676;-80
2023/03/21 12:34:51;;;;;;;;;25.80;24.20;;;;;;;;5009494;28;14431;-79
2023/03/21 12:37:36;;;;;;;;;30.00;26.33;;;;;;;;5026186;28;13623;-76
2023/03/21 12:40:22;;;;;;;;;26.25;23.50;;;;;;;;5042102;28;13748;-75
2023/03/21 12:42:56;;;;;;;;;24.50;24.50;;;;;;;;5038602;28;14581;-77
2023/03/21 12:45:40;;;;;;;;;27.00;26.60;;;;;;;;5022297;28;13750;-76
2023/03/21 12:48:15;;;;;;;;;25.80;24.80;;;;;;;;5023442;28;13635;-75
2023/03/21 12:50:41;;;;;;;;;25.20;23.20;;;;;;;;5006513;28;13724;-74
2023/03/21 12:53:22;;;;;;;;;33.00;25.75;;;;;;;;5005164;28;13695;-74
2023/03/21 12:55:53;;;;;;;;;21.00;21.00;;;;;;;;5007156;28;13785;-78
2023/03/21 12:58:36;;;;;;;;;21.20;20.20;;;;;;;;5022967;28;13774;-77
2023/03/21 13:01:05;;;;;;;;;23.50;22.75;;;;;;;;5023130;28;13658;-74
2023/03/21 13:03:49;;;;;;;;;22.00;21.25;;;;;;;;5021394;28;14377;-75
2023/03/21 13:06:21;;;;;;;;;26.60;24.20;;;;;;;;4987957;28;13876;-77
2023/03/21 13:12:32;;;;;;;;;25.00;22.25;;;;;;;;4975014;28;14400;-76
2023/03/21 13:14:59;;;;;;;;;24.40;23.00;;;;;;;;5021277;28;13668;-74
2023/03/21 13:17:33;;;;;;;;;22.80;22.20;;;;;;;;5012345;28;13661;-79
2023/03/21 13:20:24;;;;;;;;;22.50;22.00;;;;;;;;5004531;28;13657;-78
2023/03/21 13:26:03;;;;;;;;;24.60;22.00;;;;;;;;5017253;28;14397;-79
2023/03/21 13:28:30;;;;;;;;;26.00;23.00;;;;;;;;5022499;28;13572;-80
2023/03/21 13:31:13;;;;;;;;;20.00;20.00;;;;;;;;5023068;28;13568;-76
2023/03/21 13:33:44;;;;;;;;;21.00;21.00;;;;;;;;5021006;28;14337;-77
2023/03/21 13:36:13;;;;;;;;;22.20;20.20;;;;;;;;4983801;28;13539;-79
2023/03/21 13:38:48;;;;;;;;;19.00;18.00;;;;;;;;4983303;28;14603;-79
2023/03/21 13:41:17;;;;;;;;;19.00;18.00;;;;;;;;4983738;28;13833;-79
2023/03/21 13:43:48;;;;;;;;;19.00;18.00;;;;;;;;4994689;28;13559;-81
2023/03/21 13:46:25;;;;;;;;;16.00;16.00;;;;;;;;5003439;28;14380;-78
2023/03/21 13:48:54;;;;;;;;;23.33;20.00;;;;;;;;5003064;28;13696;-80
2023/03/21 13:51:35;;;;;;;;;17.00;16.00;;;;;;;;5002714;28;13648;-79
2023/03/21 13:54:00;;;;;;;;;17.75;16.50;;;;;;;;5000381;28;13504;-77
2023/03/21 13:56:25;;;;;;;;;18.00;16.75;;;;;;;;5002098;28;14366;-80
2023/03/21 13:58:53;;;;;;;;;21.67;18.67;;;;;;;;5002950;28;13577;-80
2023/03/21 14:01:25;;;;;;;;;17.60;14.80;;;;;;;;4986366;28;13533;-80
2023/03/21 14:04:10;;;;;;;;;21.00;19.00;;;;;;;;4986671;28;14393;-79
2023/03/21 14:06:38;;;;;;;;;21.75;21.75;;;;;;;;4985118;28;13670;-79
2023/03/21 14:09:04;;;;;;;;;20.25;19.00;;;;;;;;4985409;28;14389;-79
2023/03/21 14:11:31;;;;;;;;;20.75;18.75;;;;;;;;4986318;28;13618;-79
2023/03/21 14:13:59;;;;;;;;;21.25;20.75;;;;;;;;5000080;28;13720;-79
2023/03/21 14:16:27;;;;;;;;;19.00;18.00;;;;;;;;5005129;28;14366;-79
2023/03/21 14:19:00;;;;;;;;;19.50;19.50;;;;;;;;5004574;28;13592;-79
2023/03/21 14:21:28;;;;;;;;;18.20;17.20;;;;;;;;5005047;28;13651;-79
2023/03/21 14:23:57;;;;;;;;;19.40;16.80;;;;;;;;5004970;28;13583;-78
2023/03/21 14:26:24;;;;;;;;;18.50;16.75;;;;;;;;5005507;28;13618;-79
2023/03/21 14:28:50;;;;;;;;;17.50;17.50;;;;;;;;5004467;28;13707;-79
2023/03/21 14:31:17;;;;;;;;;19.50;17.25;;;;;;;;5004358;28;14454;-79
2023/03/21 14:33:46;;;;;;;;;15.40;15.40;;;;;;;;5005346;28;13599;-75
2023/03/21 14:36:19;;;;;;;;;15.60;15.60;;;;;;;;5008160;28;13614;-77
2023/03/21 14:38:53;;;;;;;;;21.00;20.00;;;;;;;;5008905;28;13583;-78
2023/03/21 14:41:26;;;;;;;;;16.75;16.75;;;;;;;;5003762;28;13480;-75
2023/03/21 14:44:01;;;;;;;;;18.00;15.75;;;;;;;;5005213;28;13602;-77
2023/03/21 14:46:26;;;;;;;;;19.00;18.60;;;;;;;;5005056;28;14386;-79
2023/03/21 14:48:51;;;;;;;;;16.50;14.00;;;;;;;;5005393;28;13611;-78
2023/03/21 14:51:17;;;;;;;;;20.00;18.00;;;;;;;;5005145;28;13633;-78
2023/03/21 14:53:43;;;;;;;;;15.80;14.40;;;;;;;;5004735;28;13576;-76
2023/03/21 14:56:16;;;;;;;;;15.00;15.00;;;;;;;;5005014;28;13624;-78
2023/03/21 14:58:43;;;;;;;;;20.60;16.40;;;;;;;;5004620;28;13624;-75
2023/03/21 15:01:13;;;;;;;;;16.60;15.20;;;;;;;;5005032;28;13592;-78
2023/03/21 15:03:38;;;;;;;;;15.80;15.00;;;;;;;;5004279;28;13761;-77
2023/03/21 15:06:04;;;;;;;;;16.00;15.00;;;;;;;;5007408;28;13688;-75
2023/03/21 15:08:30;;;;;;;;;17.00;16.00;;;;;;;;5007304;28;13617;-76
2023/03/21 15:10:56;;;;;;;;;16.00;15.00;;;;;;;;5007587;28;13632;-76
2023/03/21 15:13:24;;;;;;;;;17.00;16.00;;;;;;;;5007599;28;13650;-75
2023/03/21 15:15:50;;;;;;;;;15.00;14.50;;;;;;;;5007750;28;13610;-75
2023/03/21 15:18:19;;;;;;;;;18.00;15.00;;;;;;;;5006459;28;13849;-77
2023/03/21 15:20:45;;;;;;;;;18.00;18.00;;;;;;;;5004995;28;13588;-78
2023/03/21 15:23:13;;;;;;;;;17.00;16.00;;;;;;;;5004531;28;13576;-74
2023/03/21 15:25:39;;;;;;;;;16.80;16.00;;;;;;;;5004454;28;13698;-74
2023/03/21 15:28:04;;;;;;;;;18.75;18.50;;;;;;;;5003957;28;13612;-75
2023/03/21 15:30:31;;;;;;;;;15.00;15.00;;;;;;;;5004585;28;13605;-74
2023/03/21 15:33:01;;;;;;;;;18.20;18.20;;;;;;;;5006256;28;13687;-74
2023/03/21 15:35:30;;;;;;;;;19.25;19.00;;;;;;;;5007298;28;13668;-74
2023/03/21 15:37:57;;;;;;;;;19.75;18.75;;;;;;;;5007891;28;13672;-74
2023/03/21 15:40:29;;;;;;;;;19.00;19.00;;;;;;;;5008092;28;13577;-73
2023/03/21 15:43:13;;;;;;;;;19.20;18.00;;;;;;;;5007851;28;14426;-74
2023/03/21 15:45:48;;;;;;;;;19.25;16.25;;;;;;;;5007910;28;13731;-73
2023/03/21 15:48:15;;;;;;;;;19.75;18.00;;;;;;;;5007598;28;13445;-72
2023/03/21 15:51:00;;;;;;;;;22.25;20.00;;;;;;;;5007894;28;13610;-73
2023/03/21 15:53:25;;;;;;;;;16.00;16.00;;;;;;;;5006999;28;13633;-73
2023/03/21 15:55:52;;;;;;;;;17.00;14.50;;;;;;;;5007880;28;13686;-73
